createdAt,value
2023-03-22T00:01:12.363Z,8.30
2023-03-22T00:03:42.789Z,8.19
2023-03-22T00:06:12.905Z,8.47
2023-03-22T00:08:45.865Z,7.91
2023-03-22T00:11:16.039Z,8.08
2023-03-22T00:13:47.513Z,8.18
2023-03-22T00:16:18.375Z,7.99
2023-03-22T00:18:48.344Z,7.93
2023-03-22T00:21:19.625Z,7.71
2023-03-22T00:23:52.034Z,7.99
2023-03-22T00:26:21.889Z,7.75
2023-03-22T00:28:51.787Z,7.74
2023-03-22T00:31:22.401Z,7.94
2023-03-22T00:33:52.341Z,7.85
2023-03-22T00:36:22.281Z,7.64
2023-03-22T00:38:57.107Z,7.73
2023-03-22T00:41:27.313Z,7.30
2023-03-22T00:43:57.201Z,7.16
2023-03-22T00:46:27.254Z,7.66
2023-03-22T00:48:57.453Z,7.66
2023-03-22T00:51:27.722Z,7.26
2023-03-22T00:54:00.340Z,7.11
2023-03-22T00:56:33.959Z,6.95
2023-03-22T00:59:12.092Z,7.01
2023-03-22T01:01:42.165Z,7.45
2023-03-22T01:04:18.234Z,7.01
2023-03-22T01:06:48.585Z,7.24
2023-03-22T01:09:23.960Z,6.77
2023-03-22T01:11:53.844Z,7.16
2023-03-22T01:14:23.750Z,6.80
2023-03-22T01:16:54.943Z,6.95
2023-03-22T01:19:24.970Z,6.90
2023-03-22T01:21:54.902Z,6.60
2023-03-22T01:24:27.823Z,6.53
2023-03-22T01:26:57.775Z,6.76
2023-03-22T01:29:28.172Z,6.26
2023-03-22T01:31:58.092Z,7.11
2023-03-22T01:34:28.269Z,6.86
2023-03-22T01:36:58.373Z,6.66
2023-03-22T01:39:32.565Z,6.55
2023-03-22T01:42:06.892Z,6.65
2023-03-22T01:44:36.852Z,7.06
2023-03-22T01:47:07.067Z,6.55
2023-03-22T01:49:38.519Z,6.88
2023-03-22T01:52:13.698Z,6.50
2023-03-22T01:55:13.805Z,6.76
2023-03-22T01:57:48.878Z,6.66
2023-03-22T02:00:25.885Z,6.67
2023-03-22T02:03:36.579Z,6.54
2023-03-22T02:06:06.812Z,6.44
2023-03-22T02:08:36.753Z,6.17
2023-03-22T02:11:19.848Z,6.78
2023-03-22T02:14:09.941Z,6.76
2023-03-22T02:17:24.538Z,6.63
2023-03-22T02:20:48.135Z,6.68
2023-03-22T02:23:58.325Z,6.34
2023-03-22T02:27:06.536Z,6.24
2023-03-22T02:29:48.108Z,6.18
2023-03-22T02:32:50.529Z,6.23
2023-03-22T02:35:41.618Z,6.47
2023-03-22T02:38:47.678Z,6.51
2023-03-22T02:41:35.359Z,6.32
2023-03-22T02:44:17.538Z,6.41
2023-03-22T02:46:54.085Z,6.29
2023-03-22T02:49:35.881Z,6.35
2023-03-22T02:52:19.121Z,6.25
2023-03-22T02:54:58.077Z,6.19
2023-03-22T02:57:39.564Z,6.24
2023-03-22T03:00:14.118Z,6.03
2023-03-22T03:02:50.332Z,6.36
2023-03-22T03:05:23.171Z,6.46
2023-03-22T03:07:59.937Z,6.50
2023-03-22T03:10:32.439Z,6.06
2023-03-22T03:13:05.684Z,6.27
2023-03-22T03:15:36.015Z,5.74
2023-03-22T03:18:26.408Z,6.23
2023-03-22T03:21:05.722Z,6.20
2023-03-22T03:23:49.795Z,5.90
2023-03-22T03:26:31.005Z,5.93
2023-03-22T03:29:15.019Z,5.53
2023-03-22T03:31:53.706Z,5.68
2023-03-22T03:34:30.839Z,5.65
2023-03-22T03:37:08.345Z,5.57
2023-03-22T03:39:44.457Z,5.68
2023-03-22T03:42:20.876Z,5.49
2023-03-22T03:44:53.693Z,5.56
2023-03-22T03:47:26.018Z,5.57
2023-03-22T03:49:55.982Z,5.47
2023-03-22T03:52:26.722Z,5.61
2023-03-22T03:54:56.756Z,5.53
2023-03-22T03:57:32.272Z,5.49
2023-03-22T04:00:04.990Z,5.42
2023-03-22T04:02:43.964Z,5.55
2023-03-22T04:05:27.094Z,5.20
2023-03-22T04:07:56.943Z,4.86
2023-03-22T04:10:27.170Z,5.01
2023-03-22T04:12:57.512Z,5.41
2023-03-22T04:15:30.322Z,4.79
2023-03-22T04:18:03.693Z,5.21
2023-03-22T04:20:34.758Z,4.76
2023-03-22T04:23:04.611Z,5.00
2023-03-22T04:25:37.945Z,5.36
2023-03-22T04:28:13.703Z,5.20
2023-03-22T04:30:46.214Z,4.98
2023-03-22T04:33:46.978Z,5.57
2023-03-22T04:36:25.583Z,5.13
2023-03-22T04:39:16.022Z,5.25
2023-03-22T04:41:53.567Z,5.68
2023-03-22T04:44:23.426Z,5.89
2023-03-22T04:46:56.908Z,5.72
2023-03-22T04:49:27.207Z,5.59
2023-03-22T04:51:58.339Z,5.50
2023-03-22T04:54:36.483Z,5.18
2023-03-22T04:57:07.145Z,5.52
2023-03-22T04:59:42.664Z,5.46
2023-03-22T05:02:16.810Z,5.56
2023-03-22T05:04:47.389Z,5.14
2023-03-22T05:07:31.007Z,5.53
2023-03-22T05:10:02.914Z,5.24
2023-03-22T05:12:32.893Z,4.82
2023-03-22T05:15:35.220Z,5.28
2023-03-22T05:18:09.967Z,5.02
2023-03-22T05:20:41.110Z,5.31
2023-03-22T05:23:22.379Z,5.11
2023-03-22T05:25:58.412Z,5.19
2023-03-22T05:28:29.715Z,5.20
2023-03-22T05:31:08.520Z,5.27
2023-03-22T05:33:50.645Z,5.03
2023-03-22T05:36:25.676Z,4.87
2023-03-22T05:39:30.889Z,4.99
2023-03-22T05:42:02.177Z,5.06
2023-03-22T05:44:32.583Z,4.54
2023-03-22T05:47:12.434Z,4.73
2023-03-22T05:49:54.171Z,5.32
2023-03-22T05:52:27.055Z,5.06
2023-03-22T05:55:23.354Z,5.17
2023-03-22T05:57:58.524Z,5.16
2023-03-22T06:00:32.170Z,5.27
2023-03-22T06:03:20.727Z,5.29
2023-03-22T06:06:02.191Z,5.45
2023-03-22T06:08:44.036Z,5.49
2023-03-22T06:11:18.624Z,5.42
2023-03-22T06:13:48.802Z,5.83
2023-03-22T06:16:20.880Z,4.99
2023-03-22T06:18:50.889Z,5.75
2023-03-22T06:21:23.370Z,5.54
2023-03-22T06:23:53.332Z,5.61
2023-03-22T06:26:24.777Z,5.95
2023-03-22T06:28:54.763Z,5.61
2023-03-22T06:31:24.668Z,5.46
2023-03-22T06:34:01.271Z,5.27
2023-03-22T06:36:46.128Z,5.74
2023-03-22T06:39:20.751Z,5.89
2023-03-22T06:41:52.683Z,6.27
2023-03-22T06:44:22.684Z,6.42
2023-03-22T06:46:55.456Z,6.13
2023-03-22T06:49:40.379Z,6.41
2023-03-22T06:52:13.806Z,6.29
2023-03-22T06:54:44.229Z,6.00
2023-03-22T06:57:14.435Z,5.91
2023-03-22T06:59:44.337Z,5.80
2023-03-22T07:02:15.707Z,6.29
2023-03-22T07:05:01.580Z,6.34
2023-03-22T07:07:34.214Z,6.08
2023-03-22T07:10:04.218Z,6.06
2023-03-22T07:12:34.564Z,6.18
2023-03-22T07:15:11.381Z,5.85
2023-03-22T07:17:59.859Z,6.04
2023-03-22T07:20:30.765Z,5.67
2023-03-22T07:23:03.432Z,5.34
2023-03-22T07:25:37.565Z,6.09
2023-03-22T07:28:20.030Z,5.55
2023-03-22T07:30:50.226Z,5.57
2023-03-22T07:33:22.588Z,6.15
2023-03-22T07:35:52.608Z,6.64
2023-03-22T07:38:25.517Z,5.90
2023-03-22T07:40:56.663Z,5.63
2023-03-22T07:43:35.383Z,5.97
2023-03-22T07:46:14.588Z,5.50
2023-03-22T07:48:44.572Z,5.77
2023-03-22T07:51:34.928Z,5.43
2023-03-22T07:54:09.790Z,5.59
2023-03-22T07:56:40.292Z,5.03
2023-03-22T07:59:10.320Z,5.15
2023-03-22T08:01:40.376Z,4.89
2023-03-22T08:04:22.726Z,4.41
2023-03-22T08:07:00.084Z,4.34
2023-03-22T08:09:33.578Z,4.41
2023-03-22T08:12:04.076Z,4.02
2023-03-22T08:14:37.058Z,4.13
2023-03-22T08:17:10.812Z,3.84
2023-03-22T08:19:40.743Z,3.85
2023-03-22T08:22:15.473Z,3.56
2023-03-22T08:25:20.166Z,3.61
2023-03-22T08:27:50.321Z,3.53
2023-03-22T08:30:22.063Z,3.49
2023-03-22T08:32:52.044Z,3.54
2023-03-22T08:35:22.687Z,3.02
2023-03-22T08:37:56.619Z,3.14
2023-03-22T08:40:34.513Z,2.97
2023-03-22T08:43:05.893Z,3.02
2023-03-22T08:45:36.150Z,2.88
2023-03-22T08:48:12.549Z,2.83
2023-03-22T08:51:04.869Z,2.89
2023-03-22T08:53:58.823Z,2.80
2023-03-22T08:56:51.670Z,2.62
2023-03-22T08:59:33.193Z,2.83
2023-03-22T09:02:19.995Z,2.58
2023-03-22T09:04:50.869Z,2.36
2023-03-22T09:07:22.606Z,2.47
2023-03-22T09:10:03.468Z,2.74
2023-03-22T09:12:37.131Z,2.44
2023-03-22T09:15:08.960Z,2.43
2023-03-22T09:17:41.194Z,2.05
2023-03-22T09:20:13.157Z,2.09
2023-03-22T09:22:45.807Z,2.16
2023-03-22T09:25:18.282Z,1.96
2023-03-22T09:27:53.532Z,1.97
2023-03-22T09:30:23.520Z,2.60
2023-03-22T09:32:53.452Z,2.39
2023-03-22T09:35:23.454Z,2.25
2023-03-22T09:38:00.774Z,1.94
2023-03-22T09:40:34.645Z,1.95
2023-03-22T09:43:14.999Z,2.06
2023-03-22T09:45:50.033Z,2.10
2023-03-22T09:48:25.156Z,1.78
2023-03-22T09:50:57.542Z,1.79
2023-03-22T09:53:32.477Z,1.88
2023-03-22T09:56:13.249Z,1.79
2023-03-22T09:58:53.857Z,1.66
2023-03-22T10:01:35.337Z,1.67
2023-03-22T10:04:27.178Z,1.86
2023-03-22T10:07:09.759Z,1.55
2023-03-22T10:09:54.890Z,1.51
2023-03-22T10:12:32.053Z,1.37
2023-03-22T10:15:13.334Z,1.61
2023-03-22T10:17:48.164Z,1.26
2023-03-22T10:20:32.874Z,1.41
2023-03-22T10:23:08.022Z,1.38
2023-03-22T10:25:41.728Z,1.41
2023-03-22T10:28:21.277Z,1.29
2023-03-22T10:30:58.478Z,1.42
2023-03-22T10:33:37.281Z,1.47
2023-03-22T10:36:12.240Z,1.51
2023-03-22T10:38:50.586Z,1.66
2023-03-22T10:41:24.980Z,1.67
2023-03-22T10:43:59.421Z,1.47
2023-03-22T10:46:40.077Z,1.59
2023-03-22T10:49:16.341Z,1.61
2023-03-22T10:51:52.171Z,1.50
2023-03-22T10:54:26.157Z,1.66
2023-03-22T10:56:56.565Z,1.62
2023-03-22T10:59:44.850Z,1.63
2023-03-22T11:02:26.621Z,1.38
2023-03-22T11:04:59.531Z,1.26
2023-03-22T11:07:34.087Z,1.37
2023-03-22T11:10:32.688Z,1.43
2023-03-22T11:13:21.662Z,1.66
2023-03-22T11:16:01.505Z,1.49
2023-03-22T11:18:37.667Z,1.58
2023-03-22T11:21:10.748Z,1.46
2023-03-22T11:23:46.041Z,1.35
2023-03-22T11:26:17.770Z,1.43
2023-03-22T11:28:50.438Z,1.14
2023-03-22T11:31:22.341Z,1.33
2023-03-22T11:34:02.114Z,1.17
2023-03-22T11:36:32.587Z,1.12
2023-03-22T11:39:05.135Z,1.18
2023-03-22T11:41:39.996Z,1.14
2023-03-22T11:44:16.673Z,1.35
2023-03-22T11:46:56.009Z,1.40
2023-03-22T11:49:40.743Z,1.27
2023-03-22T11:52:14.116Z,1.34
2023-03-22T11:54:47.025Z,1.34
2023-03-22T11:57:20.441Z,1.23
2023-03-22T11:59:59.914Z,1.33
2023-03-22T12:02:34.319Z,1.28
2023-03-22T12:05:15.512Z,1.36
2023-03-22T12:07:46.723Z,1.36
2023-03-22T12:10:24.264Z,1.47
2023-03-22T12:12:58.708Z,1.45
2023-03-22T12:15:34.637Z,1.46
2023-03-22T12:18:11.980Z,1.54
2023-03-22T12:20:52.102Z,1.32
2023-03-22T12:23:24.784Z,1.45
2023-03-22T12:26:03.178Z,1.54
2023-03-22T12:28:41.219Z,1.63
2023-03-22T12:31:21.834Z,1.61
2023-03-22T12:33:56.253Z,1.45
2023-03-22T12:36:42.694Z,1.47
2023-03-22T12:39:24.872Z,1.64
2023-03-22T12:42:02.725Z,1.56
2023-03-22T12:44:40.617Z,1.86
2023-03-22T12:47:19.707Z,1.56
2023-03-22T12:49:57.800Z,1.83
2023-03-22T12:52:45.347Z,1.66
2023-03-22T12:55:27.279Z,1.72
2023-03-22T12:57:58.035Z,1.85
2023-03-22T13:00:37.656Z,1.73
2023-03-22T13:03:21.525Z,1.67
2023-03-22T13:06:01.736Z,1.67
2023-03-22T13:09:17.066Z,1.92
2023-03-22T13:11:51.188Z,1.65
2023-03-22T13:14:52.054Z,1.77
2023-03-22T13:17:41.395Z,1.72
2023-03-22T13:20:28.086Z,1.68
2023-03-22T13:23:14.740Z,1.96
2023-03-22T13:26:08.758Z,1.75
2023-03-22T13:28:39.809Z,1.82
2023-03-22T13:31:10.015Z,2.27
2023-03-22T13:33:40.405Z,1.65
2023-03-22T13:36:26.042Z,1.75
2023-03-22T13:39:03.030Z,1.75
2023-03-22T13:41:37.995Z,1.81
2023-03-22T13:44:27.513Z,1.73
2023-03-22T13:47:02.495Z,1.82
2023-03-22T13:49:49.353Z,1.70
2023-03-22T13:52:30.067Z,1.71
2023-03-22T13:55:01.144Z,1.62
2023-03-22T13:58:02.990Z,1.71
2023-03-22T14:00:41.259Z,1.71
2023-03-22T14:03:20.826Z,1.91
2023-03-22T14:05:57.305Z,1.83
2023-03-22T14:08:32.180Z,1.54
2023-03-22T14:11:12.767Z,1.59
2023-03-22T14:13:49.819Z,1.62
2023-03-22T14:16:31.835Z,1.50
2023-03-22T14:19:03.056Z,1.61
2023-03-22T14:21:35.759Z,1.67
2023-03-22T14:52:22.742Z,1.44
2023-03-22T14:54:59.454Z,1.53
2023-03-22T14:57:36.820Z,1.32
2023-03-22T15:00:19.903Z,1.32
2023-03-22T15:02:53.360Z,1.53
2023-03-22T15:05:27.263Z,1.75
2023-03-22T15:08:09.056Z,1.80
2023-03-22T15:10:41.136Z,2.14
2023-03-22T15:13:14.898Z,1.87
2023-03-22T15:15:48.916Z,2.15
2023-03-22T15:18:21.812Z,2.13
2023-03-22T15:20:55.146Z,2.08
2023-03-22T15:23:33.558Z,1.93
2023-03-22T15:26:09.492Z,1.94
2023-03-22T15:28:49.802Z,2.11
2023-03-22T15:31:32.168Z,1.95
2023-03-22T15:34:05.024Z,1.98
2023-03-22T15:36:38.132Z,1.82
2023-03-22T15:39:18.974Z,1.91
2023-03-22T15:41:55.102Z,1.74
2023-03-22T15:44:31.804Z,1.70
2023-03-22T15:47:17.075Z,1.63
2023-03-22T15:49:51.452Z,1.69
2023-03-22T15:52:24.377Z,1.81
2023-03-22T15:55:02.226Z,1.85
2023-03-22T15:57:47.496Z,2.08
2023-03-22T16:00:25.070Z,2.20
2023-03-22T16:03:01.363Z,1.80
2023-03-22T16:05:31.619Z,1.59
2023-03-22T16:08:03.188Z,1.65
2023-03-22T16:10:35.808Z,1.69
2023-03-22T16:13:12.302Z,1.82
2023-03-22T16:15:42.414Z,1.70
2023-03-22T16:18:19.716Z,1.64
2023-03-22T16:20:49.879Z,1.91
2023-03-22T16:23:23.805Z,1.58
2023-03-22T16:25:54.099Z,1.76
2023-03-22T16:28:24.120Z,2.06
2023-03-22T16:30:54.120Z,1.82
2023-03-22T16:33:26.719Z,1.87
2023-03-22T16:35:56.654Z,1.67
2023-03-22T16:38:28.081Z,1.95
2023-03-22T16:40:58.364Z,1.89
2023-03-22T16:43:28.949Z,1.94
2023-03-22T16:46:00.973Z,1.95
2023-03-22T16:48:33.783Z,2.04
2023-03-22T16:51:03.838Z,1.90
2023-03-22T16:53:40.445Z,1.99
2023-03-22T16:56:16.483Z,1.95
2023-03-22T16:58:46.574Z,2.12
2023-03-22T17:01:19.877Z,2.14
2023-03-22T17:03:54.081Z,2.04
2023-03-22T17:06:26.542Z,2.21
2023-03-22T17:08:56.528Z,1.92
2023-03-22T17:11:29.661Z,2.00
2023-03-22T17:14:00.889Z,2.01
2023-03-22T17:16:32.907Z,2.04
2023-03-22T17:19:06.724Z,2.24
2023-03-22T17:21:36.828Z,2.17
2023-03-22T17:24:07.064Z,2.23
2023-03-22T17:26:37.479Z,2.34
2023-03-22T17:29:07.543Z,2.48
2023-03-22T17:31:38.405Z,2.24
2023-03-22T17:34:16.656Z,2.05
2023-03-22T17:36:46.605Z,2.33
2023-03-22T17:39:37.870Z,2.13
2023-03-22T17:42:08.783Z,2.13
2023-03-22T17:44:41.258Z,2.34
2023-03-22T17:49:49.887Z,2.35
2023-03-22T17:52:20.206Z,2.20
2023-03-22T17:55:15.014Z,2.28
2023-03-22T18:00:25.155Z,2.28
2023-03-22T18:02:55.829Z,3.04
2023-03-22T18:05:34.078Z,3.81
2023-03-22T18:08:26.303Z,3.35
2023-03-22T18:10:54.918Z,3.75
2023-03-22T18:13:26.127Z,3.71
2023-03-22T18:15:56.271Z,3.37
2023-03-22T18:18:26.384Z,3.28
2023-03-22T18:21:04.466Z,2.84
2023-03-22T18:23:35.080Z,3.14
2023-03-22T18:26:20.970Z,3.35
2023-03-22T18:28:58.364Z,3.09
2023-03-22T18:31:30.757Z,3.24
2023-03-22T18:34:01.246Z,3.47
2023-03-22T18:36:34.490Z,3.34
2023-03-22T18:39:34.905Z,3.47
2023-03-22T18:41:59.646Z,3.74
2023-03-22T18:44:39.112Z,4.00
2023-03-22T18:47:10.117Z,3.53
2023-03-22T18:49:40.284Z,3.47
2023-03-22T18:52:40.000Z,3.01
2023-03-22T18:55:21.613Z,3.50
2023-03-22T18:57:54.946Z,3.74
2023-03-22T19:00:25.553Z,3.70
2023-03-22T19:02:57.148Z,3.72
2023-03-22T19:05:27.557Z,3.64
2023-03-22T19:10:37.782Z,3.63
2023-03-22T19:13:07.900Z,3.66
2023-03-22T19:15:46.938Z,3.32
2023-03-22T19:18:21.884Z,3.99
2023-03-22T19:21:02.720Z,4.92
2023-03-22T19:23:44.306Z,5.52
2023-03-22T19:26:14.340Z,4.93
2023-03-22T19:28:44.337Z,4.78
2023-03-22T19:31:14.378Z,4.89
2023-03-22T19:36:15.657Z,5.12
2023-03-22T19:38:48.311Z,4.93
2023-03-22T19:41:42.956Z,5.09
2023-03-22T19:44:08.486Z,5.18
2023-03-22T19:46:39.009Z,4.76
2023-03-22T19:49:08.986Z,4.74
2023-03-22T19:51:38.962Z,4.09
2023-03-22T19:54:28.051Z,4.44
2023-03-22T19:57:02.127Z,4.29
2023-03-22T19:59:33.044Z,4.14
2023-03-22T20:02:03.094Z,3.69
2023-03-22T20:04:33.376Z,4.24
2023-03-22T20:07:03.566Z,4.54
2023-03-22T20:09:36.495Z,3.90
2023-03-22T20:12:10.004Z,3.51
2023-03-22T20:14:39.976Z,3.45
2023-03-22T20:17:12.620Z,3.51
2023-03-22T20:19:47.722Z,3.59
2023-03-22T20:22:18.015Z,3.68
2023-03-22T20:24:50.712Z,3.66
2023-03-22T20:27:20.750Z,4.10
2023-03-22T20:29:50.885Z,3.90
2023-03-22T20:32:21.987Z,3.88
2023-03-22T20:34:52.056Z,3.57
2023-03-22T20:37:23.543Z,3.87
2023-03-22T20:39:56.278Z,3.90
2023-03-22T20:42:26.395Z,3.73
2023-03-22T20:44:57.013Z,3.61
2023-03-22T20:47:27.143Z,4.13
2023-03-22T20:49:57.551Z,4.68
2023-03-22T20:52:27.711Z,4.46
2023-03-22T20:55:00.324Z,4.68
2023-03-22T20:57:30.478Z,4.66
2023-03-22T21:00:01.203Z,4.00
2023-03-22T21:02:32.130Z,3.81
2023-03-22T21:05:02.164Z,3.69
2023-03-22T21:07:32.270Z,3.70
2023-03-22T21:10:04.879Z,3.75
2023-03-22T21:12:35.788Z,3.79
2023-03-22T21:15:06.185Z,3.80
2023-03-22T21:17:36.511Z,3.96
2023-03-22T21:20:07.593Z,3.85
2023-03-22T21:22:37.877Z,3.89
2023-03-22T21:25:11.560Z,3.64
2023-03-22T21:27:41.773Z,3.95
2023-03-22T21:30:14.695Z,4.22
2023-03-22T21:32:47.711Z,4.05
2023-03-22T21:35:17.675Z,4.12
2023-03-22T21:37:47.622Z,4.06
2023-03-22T21:40:22.085Z,4.07
2023-03-22T21:42:54.215Z,4.08
2023-03-22T21:45:24.257Z,3.91
2023-03-22T21:47:58.104Z,3.95
2023-03-22T21:50:28.695Z,4.16
2023-03-22T21:52:58.681Z,4.68
2023-03-22T21:55:32.633Z,4.42
2023-03-22T21:58:03.573Z,4.27
2023-03-22T22:00:34.521Z,3.94
2023-03-22T22:03:04.463Z,3.93
2023-03-22T22:05:36.264Z,3.60
2023-03-22T22:08:07.894Z,3.54
2023-03-22T22:10:40.433Z,3.29
2023-03-22T22:13:10.541Z,3.21
2023-03-22T22:15:40.717Z,3.70
2023-03-22T22:18:16.628Z,3.10
2023-03-22T22:20:46.912Z,2.67
2023-03-22T22:23:17.024Z,2.58
2023-03-22T22:25:53.356Z,2.56
2023-03-22T22:28:23.554Z,2.63
2023-03-22T22:30:54.479Z,2.65
2023-03-22T22:33:25.029Z,2.44
2023-03-22T22:35:55.293Z,2.23
2023-03-22T22:38:25.245Z,2.27
2023-03-22T22:40:58.697Z,2.34
2023-03-22T22:43:28.596Z,2.32
2023-03-22T22:46:00.574Z,2.25
2023-03-22T22:48:30.810Z,1.87
2023-03-22T22:51:04.596Z,1.86
2023-03-22T22:53:35.398Z,1.76
2023-03-22T22:56:10.395Z,1.61
2023-03-22T22:58:42.154Z,1.78
2023-03-22T23:01:15.124Z,1.53
2023-03-22T23:03:46.142Z,1.87
2023-03-22T23:06:20.406Z,1.85
2023-03-22T23:08:51.268Z,1.73
2023-03-22T23:11:25.476Z,1.80
2023-03-22T23:13:58.085Z,1.48
2023-03-22T23:16:30.092Z,1.56
2023-03-22T23:19:02.142Z,1.54
2023-03-22T23:21:34.221Z,1.45
2023-03-22T23:24:04.419Z,1.53
2023-03-22T23:26:38.500Z,1.57
2023-03-22T23:29:09.242Z,1.57
2023-03-22T23:31:39.692Z,1.48
2023-03-22T23:34:10.765Z,1.59
2023-03-22T23:36:44.105Z,1.42
2023-03-22T23:39:14.305Z,1.41
2023-03-22T23:41:47.399Z,1.37
2023-03-22T23:44:18.234Z,1.51
2023-03-22T23:46:48.788Z,1.36
2023-03-22T23:49:18.968Z,1.41
2023-03-22T23:51:48.884Z,1.56
2023-03-22T23:54:18.885Z,1.48
2023-03-22T23:56:55.173Z,1.33
2023-03-22T23:59:25.902Z,1.51
